createdAt,value
2023-04-25T00:02:24.160Z,10.07
2023-04-25T00:04:59.290Z,10.05
2023-04-25T00:07:32.234Z,10.03
2023-04-25T00:10:04.634Z,10.05
2023-04-25T00:12:37.074Z,10.09
2023-04-25T00:15:13.164Z,10.08
2023-04-25T00:17:46.632Z,10.03
2023-04-25T00:20:18.567Z,9.99
2023-04-25T00:22:50.704Z,9.95
2023-04-25T00:25:22.455Z,9.94
2023-04-25T00:27:54.266Z,9.95
2023-04-25T00:30:26.145Z,9.94
2023-04-25T00:32:57.967Z,9.91
2023-04-25T00:35:29.753Z,9.93
2023-04-25T00:38:01.852Z,9.98
2023-04-25T00:40:33.671Z,9.98
2023-04-25T00:43:05.646Z,9.95
2023-04-25T00:45:40.000Z,9.93
2023-04-25T00:48:13.125Z,9.88
2023-04-25T00:50:55.116Z,9.84
2023-04-25T00:53:28.942Z,9.77
2023-04-25T00:56:03.856Z,9.69
2023-04-25T00:58:35.954Z,9.66
2023-04-25T01:01:08.020Z,9.60
2023-04-25T01:03:44.679Z,9.56
2023-04-25T01:06:17.802Z,9.53
2023-04-25T01:08:49.595Z,9.43
2023-04-25T01:11:21.360Z,9.39
2023-04-25T01:13:53.388Z,9.38
2023-04-25T01:16:25.658Z,9.36
2023-04-25T01:18:57.640Z,9.28
2023-04-25T01:21:30.849Z,9.27
2023-04-25T01:24:03.050Z,9.25
2023-04-25T01:26:36.144Z,9.26
2023-04-25T01:29:08.956Z,9.19
2023-04-25T01:31:41.414Z,9.17
2023-04-25T01:34:14.778Z,9.14
2023-04-25T01:36:49.959Z,9.10
2023-04-25T01:39:22.181Z,9.12
2023-04-25T01:41:53.868Z,9.13
2023-04-25T01:44:28.643Z,9.15
2023-04-25T01:47:00.314Z,9.14
2023-04-25T01:49:33.715Z,9.11
2023-04-25T01:52:05.493Z,9.02
2023-04-25T01:54:38.366Z,9.00
2023-04-25T01:57:12.276Z,8.99
2023-04-25T01:59:46.217Z,8.95
2023-04-25T02:02:24.137Z,8.92
2023-04-25T02:04:57.226Z,8.91
2023-04-25T02:07:30.879Z,8.91
2023-04-25T02:10:06.054Z,8.89
2023-04-25T02:12:43.223Z,8.84
2023-04-25T02:15:37.998Z,8.81
2023-04-25T02:18:22.237Z,8.80
2023-04-25T02:20:54.327Z,8.75
2023-04-25T02:23:26.288Z,8.73
2023-04-25T02:25:58.366Z,8.69
2023-04-25T02:28:30.129Z,8.67
2023-04-25T02:31:01.902Z,8.64
2023-04-25T02:33:33.586Z,8.63
2023-04-25T02:36:05.484Z,8.57
2023-04-25T02:38:37.144Z,8.53
2023-04-25T02:41:10.309Z,8.46
2023-04-25T02:43:41.959Z,8.43
2023-04-25T02:46:13.790Z,8.40
2023-04-25T02:48:48.494Z,8.40
2023-04-25T02:51:21.227Z,8.40
2023-04-25T02:53:53.433Z,8.38
2023-04-25T02:56:27.152Z,8.38
2023-04-25T02:58:58.982Z,8.36
2023-04-25T03:01:30.888Z,8.34
2023-04-25T03:04:02.625Z,8.34
2023-04-25T03:06:34.531Z,8.32
2023-04-25T03:09:06.277Z,8.32
2023-04-25T03:11:39.513Z,8.33
2023-04-25T03:14:11.910Z,8.35
2023-04-25T03:16:43.668Z,8.30
2023-04-25T03:19:17.073Z,8.27
2023-04-25T03:21:49.384Z,8.21
2023-04-25T03:24:21.468Z,8.22
2023-04-25T03:26:53.228Z,8.24
2023-04-25T03:29:27.441Z,8.28
2023-04-25T03:32:03.301Z,8.32
2023-04-25T03:34:35.060Z,8.32
2023-04-25T03:37:07.035Z,8.33
2023-04-25T03:39:42.850Z,8.35
2023-04-25T03:42:14.795Z,8.36
2023-04-25T03:44:50.256Z,8.35
2023-04-25T03:47:22.127Z,8.33
2023-04-25T03:49:57.729Z,8.34
2023-04-25T03:52:30.037Z,8.35
2023-04-25T03:55:01.909Z,8.37
2023-04-25T03:57:33.787Z,8.37
2023-04-25T04:00:08.330Z,8.37
2023-04-25T04:02:45.695Z,8.30
2023-04-25T04:05:18.801Z,8.26
2023-04-25T04:07:57.164Z,8.31
2023-04-25T04:10:29.172Z,8.27
2023-04-25T04:13:00.903Z,8.29
2023-04-25T04:15:34.064Z,8.26
2023-04-25T04:18:07.190Z,8.31
2023-04-25T04:20:39.228Z,8.32
2023-04-25T04:23:12.891Z,8.30
2023-04-25T04:25:44.776Z,8.34
2023-04-25T04:28:36.748Z,8.34
2023-04-25T04:31:20.665Z,8.40
2023-04-25T04:33:54.337Z,8.43
2023-04-25T04:36:27.495Z,8.56
2023-04-25T04:38:59.291Z,8.57
2023-04-25T04:41:40.926Z,8.62
2023-04-25T04:44:33.595Z,8.76
2023-04-25T04:47:18.846Z,8.89
2023-04-25T04:50:22.842Z,8.95
2023-04-25T04:53:16.660Z,9.05
2023-04-25T04:56:14.640Z,9.06
2023-04-25T04:59:22.434Z,9.09
2023-04-25T05:02:22.730Z,9.09
2023-04-25T05:05:08.856Z,9.06
2023-04-25T05:07:53.689Z,9.02
2023-04-25T05:10:44.079Z,9.01
2023-04-25T05:13:43.843Z,9.08
2023-04-25T05:16:45.085Z,9.15
2023-04-25T05:19:27.692Z,9.18
2023-04-25T05:22:38.464Z,9.27
2023-04-25T05:25:24.437Z,9.36
2023-04-25T05:28:13.218Z,9.50
2023-04-25T05:30:44.981Z,9.52
2023-04-25T05:33:26.256Z,9.57
2023-04-25T05:35:58.848Z,9.57
2023-04-25T05:38:34.534Z,9.53
2023-04-25T05:41:35.670Z,9.53
2023-04-25T05:44:27.635Z,9.54
2023-04-25T05:47:26.688Z,9.54
2023-04-25T05:50:27.611Z,9.60
2023-04-25T05:53:20.607Z,9.66
2023-04-25T05:55:58.848Z,9.68
2023-04-25T05:58:32.412Z,9.66
2023-04-25T06:01:05.787Z,9.76
2023-04-25T06:03:39.233Z,9.79
2023-04-25T06:06:18.127Z,9.86
2023-04-25T06:08:49.883Z,9.90
2023-04-25T06:11:21.678Z,9.93
2023-04-25T06:13:53.749Z,10.04
2023-04-25T06:16:27.087Z,10.21
2023-04-25T06:18:59.446Z,10.49
2023-04-25T06:21:32.496Z,10.74
2023-04-25T06:24:05.130Z,10.85
2023-04-25T06:26:37.143Z,10.87
2023-04-25T06:29:13.016Z,10.85
2023-04-25T06:31:44.844Z,10.84
2023-04-25T06:34:17.581Z,10.83
2023-04-25T06:36:49.512Z,10.88
2023-04-25T06:39:24.249Z,10.76
2023-04-25T06:41:56.085Z,10.68
2023-04-25T06:44:48.319Z,10.62
2023-04-25T06:47:20.377Z,10.71
2023-04-25T06:49:53.147Z,10.83
2023-04-25T06:52:25.811Z,10.88
2023-04-25T06:54:59.175Z,10.86
2023-04-25T06:57:46.780Z,10.83
2023-04-25T07:00:41.328Z,10.87
2023-04-25T07:03:13.230Z,10.83
2023-04-25T07:05:46.985Z,10.81
2023-04-25T07:08:18.883Z,10.81
2023-04-25T07:10:50.620Z,10.85
2023-04-25T07:13:22.457Z,10.87
2023-04-25T07:15:56.707Z,10.87
2023-04-25T07:18:29.126Z,10.92
2023-04-25T07:21:00.868Z,10.90
2023-04-25T07:23:33.734Z,10.93
2023-04-25T07:26:09.039Z,10.96
2023-04-25T07:28:41.658Z,11.07
2023-04-25T07:31:13.566Z,11.12
2023-04-25T07:33:48.576Z,11.13
2023-04-25T07:36:20.795Z,11.33
2023-04-25T07:38:52.821Z,11.59
2023-04-25T07:41:24.882Z,11.76
2023-04-25T07:43:56.916Z,12.04
2023-04-25T07:46:28.969Z,12.25
2023-04-25T07:49:00.863Z,12.69
2023-04-25T07:51:32.841Z,13.30
2023-04-25T07:54:11.076Z,13.74
2023-04-25T07:56:52.710Z,13.91
2023-04-25T07:59:30.316Z,13.91
2023-04-25T08:02:04.832Z,13.97
2023-04-25T08:04:37.240Z,14.12
2023-04-25T08:07:12.731Z,14.52
2023-04-25T08:09:54.706Z,15.10
2023-04-25T08:12:34.956Z,15.75
2023-04-25T08:15:07.413Z,16.15
2023-04-25T08:17:42.417Z,16.04
2023-04-25T08:20:14.474Z,15.60
2023-04-25T08:22:47.282Z,15.40
2023-04-25T08:25:45.282Z,15.31
2023-04-25T08:28:19.299Z,15.71
2023-04-25T08:30:51.960Z,15.87
2023-04-25T08:33:24.595Z,15.80
2023-04-25T08:36:12.097Z,15.97
2023-04-25T08:38:44.068Z,16.26
2023-04-25T08:41:23.226Z,16.15
2023-04-25T08:43:57.103Z,15.86
2023-04-25T08:46:32.337Z,15.86
2023-04-25T08:49:24.279Z,15.57
2023-04-25T08:51:59.158Z,15.33
2023-04-25T08:54:35.823Z,15.28
2023-04-25T08:57:10.082Z,15.09
2023-04-25T08:59:46.753Z,15.04
2023-04-25T09:02:21.756Z,14.90
2023-04-25T09:04:57.177Z,14.71
2023-04-25T09:07:29.662Z,14.51
2023-04-25T09:10:03.449Z,14.31
2023-04-25T09:12:43.606Z,14.16
2023-04-25T09:17:59.588Z,13.98
2023-04-25T09:20:59.526Z,13.98
2023-04-25T09:23:45.386Z,14.02
2023-04-25T09:26:19.492Z,14.07
2023-04-25T09:29:06.509Z,13.93
2023-04-25T09:31:41.764Z,13.82
2023-04-25T09:34:18.186Z,13.73
2023-04-25T09:37:02.782Z,13.60
2023-04-25T09:40:08.929Z,13.47
2023-04-25T09:43:01.547Z,13.47
2023-04-25T09:45:42.454Z,13.49
2023-04-25T09:48:22.476Z,13.41
2023-04-25T09:51:16.967Z,13.39
2023-04-25T09:53:52.090Z,13.44
2023-04-25T09:57:12.602Z,13.35
2023-04-25T09:59:49.256Z,13.18
2023-04-25T10:02:27.208Z,12.77
2023-04-25T10:05:06.855Z,12.51
2023-04-25T10:07:43.513Z,12.22
2023-04-25T10:10:21.005Z,11.88
2023-04-25T10:12:53.368Z,11.72
2023-04-25T10:15:25.697Z,11.66
2023-04-25T10:17:57.985Z,11.68
2023-04-25T10:20:32.778Z,11.42
2023-04-25T10:23:23.072Z,11.19
2023-04-25T10:25:55.370Z,11.05
2023-04-25T10:28:27.219Z,10.90
2023-04-25T10:31:04.307Z,10.70
2023-04-25T10:33:39.768Z,10.52
2023-04-25T10:36:15.896Z,10.53
2023-04-25T10:38:49.220Z,10.52
2023-04-25T10:41:23.691Z,10.43
2023-04-25T10:44:05.548Z,10.34
2023-04-25T10:46:37.811Z,10.30
2023-04-25T10:49:12.527Z,10.29
2023-04-25T10:54:24.086Z,10.25
2023-04-25T10:56:55.793Z,10.30
2023-04-25T10:59:29.178Z,10.29
2023-04-25T11:02:13.353Z,10.33
2023-04-25T11:04:46.516Z,10.23
2023-04-25T11:07:34.528Z,10.18
2023-04-25T11:10:07.205Z,10.17
2023-04-25T11:12:38.892Z,10.22
2023-04-25T11:15:10.779Z,10.34
2023-04-25T11:17:42.689Z,10.48
2023-04-25T11:20:16.577Z,10.61
2023-04-25T11:22:50.355Z,10.84
2023-04-25T11:25:24.370Z,11.07
2023-04-25T11:27:58.351Z,11.18
2023-04-25T11:30:31.839Z,11.23
2023-04-25T11:33:04.419Z,11.29
2023-04-25T11:35:38.877Z,11.30
2023-04-25T11:38:11.348Z,11.28
2023-04-25T11:40:43.054Z,11.26
2023-04-25T11:43:14.873Z,11.17
2023-04-25T11:45:53.455Z,11.16
2023-04-25T11:48:26.310Z,11.29
2023-04-25T11:50:58.307Z,11.53
2023-04-25T11:53:30.034Z,11.87
2023-04-25T11:56:02.542Z,12.26
2023-04-25T11:58:57.788Z,12.74
2023-04-25T12:01:35.275Z,13.11
2023-04-25T12:04:25.224Z,13.70
2023-04-25T12:06:57.299Z,14.09
2023-04-25T12:09:31.894Z,14.12
2023-04-25T12:12:06.983Z,14.33
2023-04-25T12:14:38.816Z,14.54
2023-04-25T12:17:10.904Z,14.66
2023-04-25T12:19:44.822Z,14.96
2023-04-25T12:22:24.734Z,15.10
2023-04-25T12:24:59.397Z,15.03
2023-04-25T12:27:32.749Z,15.08
2023-04-25T12:30:04.945Z,15.16
2023-04-25T12:32:37.481Z,15.07
2023-04-25T12:35:09.539Z,15.04
2023-04-25T12:37:41.333Z,14.93
2023-04-25T12:40:13.330Z,15.01
2023-04-25T12:42:45.118Z,15.39
2023-04-25T12:45:16.801Z,15.60
2023-04-25T12:47:48.654Z,15.30
2023-04-25T12:50:20.392Z,15.23
2023-04-25T12:52:52.304Z,15.41
2023-04-25T12:55:24.126Z,15.12
2023-04-25T12:57:55.903Z,15.02
2023-04-25T13:00:28.049Z,14.72
2023-04-25T13:03:00.362Z,14.42
2023-04-25T13:05:32.717Z,14.17
2023-04-25T13:08:05.325Z,13.96
2023-04-25T13:10:37.968Z,13.85
2023-04-25T13:13:09.744Z,13.77
2023-04-25T13:15:41.739Z,13.64
2023-04-25T13:18:16.666Z,13.49
2023-04-25T13:20:51.365Z,13.44
2023-04-25T13:23:27.541Z,13.36
2023-04-25T13:25:59.588Z,13.19
2023-04-25T13:28:31.530Z,13.20
2023-04-25T13:31:03.214Z,13.24
2023-04-25T13:33:34.994Z,13.19
2023-04-25T13:36:06.893Z,13.22
2023-04-25T13:38:40.104Z,13.26
2023-04-25T13:41:18.733Z,13.20
2023-04-25T13:43:53.614Z,13.13
2023-04-25T13:46:44.986Z,13.05
2023-04-25T13:49:17.625Z,13.00
2023-04-25T13:51:49.539Z,12.96
2023-04-25T13:54:21.365Z,12.91
2023-04-25T13:56:55.640Z,12.77
2023-04-25T13:59:28.801Z,12.71
2023-04-25T14:02:00.981Z,12.80
2023-04-25T14:04:33.244Z,13.04
2023-04-25T14:07:05.838Z,13.20
2023-04-25T14:09:37.960Z,13.29
2023-04-25T14:12:09.714Z,13.46
2023-04-25T14:14:41.418Z,13.59
2023-04-25T14:17:13.141Z,13.66
2023-04-25T14:19:46.662Z,13.62
2023-04-25T14:22:18.921Z,13.61
2023-04-25T14:24:50.763Z,13.66
2023-04-25T14:27:22.446Z,13.60
2023-04-25T14:29:54.227Z,13.51
2023-04-25T14:32:28.812Z,13.43
2023-04-25T14:35:00.919Z,13.38
2023-04-25T14:37:32.789Z,13.29
2023-04-25T14:40:05.672Z,13.19
2023-04-25T14:42:38.133Z,13.13
2023-04-25T14:45:10.235Z,13.03
2023-04-25T14:47:42.475Z,13.00
2023-04-25T14:50:14.264Z,12.89
2023-04-25T14:52:46.110Z,12.85
2023-04-25T14:55:20.897Z,12.88
2023-04-25T14:57:56.956Z,12.93
2023-04-25T15:00:29.472Z,12.87
2023-04-25T15:03:01.365Z,12.74
2023-04-25T15:05:33.263Z,12.59
2023-04-25T15:08:05.159Z,12.48
2023-04-25T15:10:37.657Z,12.47
2023-04-25T15:13:11.494Z,12.45
2023-04-25T15:15:43.283Z,12.36
2023-04-25T15:18:15.322Z,12.36
2023-04-25T15:20:47.122Z,12.35
2023-04-25T15:23:19.744Z,12.39
2023-04-25T15:25:53.481Z,12.30
2023-04-25T15:28:25.638Z,12.25
2023-04-25T15:30:57.375Z,12.30
2023-04-25T15:33:29.124Z,12.41
2023-04-25T15:36:00.971Z,12.39
2023-04-25T15:38:33.112Z,12.40
2023-04-25T15:41:06.736Z,12.46
2023-04-25T15:43:38.895Z,12.46
2023-04-25T15:46:10.627Z,12.46
2023-04-25T15:48:42.543Z,12.38
2023-04-25T15:51:14.318Z,12.29
2023-04-25T15:53:47.152Z,12.21
2023-04-25T15:56:18.984Z,12.21
2023-04-25T15:58:51.262Z,12.09
2023-04-25T16:01:24.681Z,12.02
2023-04-25T16:03:58.757Z,11.93
2023-04-25T16:06:31.458Z,11.86
2023-04-25T16:09:03.783Z,11.79
2023-04-25T16:11:35.540Z,11.74
2023-04-25T16:14:08.780Z,11.68
2023-04-25T16:16:40.640Z,11.62
2023-04-25T16:19:12.455Z,11.45
2023-04-25T16:21:44.484Z,11.33
2023-04-25T16:24:19.025Z,11.32
2023-04-25T16:26:50.754Z,11.19
2023-04-25T16:29:22.610Z,11.11
2023-04-25T16:31:54.532Z,11.03
2023-04-25T16:34:27.669Z,10.95
2023-04-25T16:36:59.939Z,10.90
2023-04-25T16:39:31.635Z,10.96
2023-04-25T16:42:04.947Z,10.98
2023-04-25T16:44:36.806Z,11.00
2023-04-25T16:47:08.954Z,10.91
2023-04-25T16:49:41.132Z,10.90
2023-04-25T16:52:13.013Z,10.77
2023-04-25T16:54:45.578Z,10.78
2023-04-25T16:57:17.450Z,10.66
2023-04-25T16:59:49.187Z,10.62
2023-04-25T17:02:21.306Z,10.64
2023-04-25T17:04:53.629Z,10.63
2023-04-25T17:07:25.828Z,10.58
2023-04-25T17:09:57.494Z,10.51
2023-04-25T17:12:29.296Z,10.50
2023-04-25T17:15:01.439Z,10.51
2023-04-25T17:17:33.339Z,10.52
2023-04-25T17:20:06.923Z,10.56
2023-04-25T17:22:38.891Z,10.53
2023-04-25T17:25:11.162Z,10.56
2023-04-25T17:27:42.986Z,10.51
2023-04-25T17:30:14.792Z,10.49
2023-04-25T17:32:46.567Z,10.46
2023-04-25T17:35:18.520Z,10.41
2023-04-25T17:37:51.603Z,10.36
2023-04-25T17:40:23.930Z,10.32
2023-04-25T17:42:55.737Z,10.27
2023-04-25T17:45:28.887Z,10.20
2023-04-25T17:48:01.637Z,10.14
2023-04-25T17:50:33.322Z,10.07
2023-04-25T17:53:05.144Z,10.07
2023-04-25T17:55:36.910Z,10.00
2023-04-25T17:58:08.645Z,9.99
2023-04-25T18:00:40.501Z,10.03
2023-04-25T18:03:12.681Z,9.99
2023-04-25T18:05:44.409Z,9.89
2023-04-25T18:08:16.366Z,9.84
2023-04-25T18:10:48.198Z,9.80
2023-04-25T18:13:19.952Z,9.81
2023-04-25T18:15:51.898Z,9.78
2023-04-25T18:18:26.437Z,9.71
2023-04-25T18:20:58.097Z,9.67
2023-04-25T18:23:29.890Z,9.65
2023-04-25T18:26:04.407Z,9.67
2023-04-25T18:28:38.305Z,9.57
2023-04-25T18:31:14.383Z,9.47
2023-04-25T18:33:46.223Z,9.38
2023-04-25T18:36:17.875Z,9.35
2023-04-25T18:38:52.251Z,9.28
2023-04-25T18:41:50.991Z,9.25
2023-04-25T18:44:20.756Z,9.15
2023-04-25T18:46:52.696Z,9.17
2023-04-25T18:49:24.486Z,9.02
2023-04-25T18:51:57.470Z,8.93
2023-04-25T18:54:29.415Z,8.97
2023-04-25T18:57:01.264Z,8.95
2023-04-25T18:59:33.712Z,8.88
2023-04-25T19:02:05.776Z,8.82
2023-04-25T19:04:38.041Z,8.83
2023-04-25T19:07:09.850Z,8.81
2023-04-25T19:09:41.654Z,8.79
2023-04-25T19:12:13.425Z,8.80
2023-04-25T19:14:45.446Z,8.78
2023-04-25T19:17:17.159Z,8.75
2023-04-25T19:19:49.009Z,8.77
2023-04-25T19:22:20.754Z,8.79
2023-04-25T19:25:03.123Z,8.81
2023-04-25T19:27:42.315Z,8.70
2023-04-25T19:30:14.639Z,8.70
2023-04-25T19:32:46.453Z,8.68
2023-04-25T19:35:19.198Z,8.68
2023-04-25T19:37:50.867Z,8.67
2023-04-25T19:40:27.050Z,8.66
2023-04-25T19:42:58.884Z,8.59
2023-04-25T19:45:31.666Z,8.60
2023-04-25T19:48:04.561Z,8.50
2023-04-25T19:50:36.730Z,8.50
2023-04-25T19:53:09.308Z,8.54
2023-04-25T19:55:41.371Z,8.56
2023-04-25T19:58:14.498Z,8.61
2023-04-25T20:00:46.295Z,8.64
2023-04-25T20:03:18.556Z,8.60
2023-04-25T20:05:50.445Z,8.56
2023-04-25T20:08:23.606Z,8.51
2023-04-25T20:10:57.269Z,8.47
2023-04-25T20:13:29.238Z,8.40
2023-04-25T20:16:02.633Z,8.42
2023-04-25T20:18:34.982Z,8.43
2023-04-25T20:21:08.590Z,8.42
2023-04-25T20:23:42.020Z,8.40
2023-04-25T20:26:14.167Z,8.38
2023-04-25T20:28:46.344Z,8.36
2023-04-25T20:31:18.300Z,8.28
2023-04-25T20:33:49.992Z,8.25
2023-04-25T20:36:21.693Z,8.28
2023-04-25T20:38:53.839Z,8.25
2023-04-25T20:41:26.195Z,8.26
2023-04-25T20:43:58.260Z,8.27
2023-04-25T20:46:30.785Z,8.30
2023-04-25T20:49:05.100Z,8.29
2023-04-25T20:51:36.988Z,8.31
2023-04-25T20:54:09.708Z,8.34
2023-04-25T20:56:42.701Z,8.37
2023-04-25T20:59:15.321Z,8.37
2023-04-25T21:01:47.269Z,8.41
2023-04-25T21:04:19.225Z,8.44
2023-04-25T21:06:51.345Z,8.38
2023-04-25T21:09:24.029Z,8.35
2023-04-25T21:11:55.863Z,8.29
2023-04-25T21:14:27.541Z,8.30
2023-04-25T21:16:59.422Z,8.25
2023-04-25T21:19:31.475Z,8.29
2023-04-25T21:22:03.732Z,8.26
2023-04-25T21:24:35.456Z,8.24
2023-04-25T21:27:07.176Z,8.20
2023-04-25T21:29:38.986Z,8.19
2023-04-25T21:32:11.297Z,8.15
2023-04-25T21:34:43.162Z,8.14
2023-04-25T21:37:14.959Z,8.14
2023-04-25T21:39:48.002Z,8.10
2023-04-25T21:42:19.895Z,8.05
2023-04-25T21:44:51.636Z,8.04
2023-04-25T21:47:24.816Z,8.04
2023-04-25T21:49:58.018Z,7.99
2023-04-25T21:52:32.020Z,7.97
2023-04-25T21:55:03.858Z,7.96
2023-04-25T21:57:36.372Z,7.96
2023-04-25T22:00:22.113Z,7.95
2023-04-25T22:02:55.475Z,7.90
2023-04-25T22:05:28.189Z,7.83
2023-04-25T22:08:00.395Z,7.73
2023-04-25T22:10:32.081Z,7.66
2023-04-25T22:13:03.996Z,7.58
2023-04-25T22:15:35.650Z,7.52
2023-04-25T22:18:08.053Z,7.47
2023-04-25T22:20:40.055Z,7.45
2023-04-25T22:23:14.650Z,7.44
2023-04-25T22:25:46.364Z,7.45
2023-04-25T22:28:18.257Z,7.40
2023-04-25T22:30:50.480Z,7.39
2023-04-25T22:33:22.677Z,7.39
2023-04-25T22:35:54.698Z,7.39
2023-04-25T22:38:26.555Z,7.42
2023-04-25T22:40:58.208Z,7.40
2023-04-25T22:43:29.865Z,7.40
2023-04-25T22:46:02.389Z,7.34
2023-04-25T22:48:34.139Z,7.32
2023-04-25T22:51:06.286Z,7.27
2023-04-25T22:53:41.401Z,7.23
2023-04-25T22:56:13.155Z,7.23
2023-04-25T22:58:45.037Z,7.24
2023-04-25T23:01:19.332Z,7.24
2023-04-25T23:03:51.414Z,7.20
2023-04-25T23:06:26.533Z,7.21
2023-04-25T23:08:58.648Z,7.23
2023-04-25T23:11:30.324Z,7.25
2023-04-25T23:14:03.818Z,7.26
2023-04-25T23:16:35.731Z,7.24
2023-04-25T23:19:08.087Z,7.24
2023-04-25T23:21:39.801Z,7.23
2023-04-25T23:24:11.497Z,7.19
2023-04-25T23:26:43.297Z,7.11
2023-04-25T23:29:15.066Z,7.04
2023-04-25T23:31:46.726Z,7.04
2023-04-25T23:34:18.518Z,7.01
2023-04-25T23:36:51.070Z,6.98
2023-04-25T23:39:22.806Z,6.94
2023-04-25T23:41:54.504Z,6.91
2023-04-25T23:44:26.376Z,6.87
2023-04-25T23:46:58.075Z,6.79
2023-04-25T23:49:29.809Z,6.74
2023-04-25T23:52:01.430Z,6.72
2023-04-25T23:54:33.113Z,6.66
2023-04-25T23:57:04.899Z,6.65
2023-04-25T23:59:36.626Z,6.63
